Time;durP1;ratioP1;P1;durP2;ratioP2;P2;SDS_P1;SDS_P2;PMS_P1;PMS_P2;Temp;Humidity;BMP_temperature;BMP_pressure;BME280_temperature;BME280_humidity;BME280_pressure;Samples;Min_cycle;Max_cycle;Signal;HPM_P1;HPM_P2
2022/10/23 00:00:32;;;;;;;;;;;14.20;99.90;;;;;;4939383;28;19934;-60
2022/10/23 00:02:59;;;;;;;;;;;14.10;99.90;;;;;;4943806;28;19938;-60
2022/10/23 00:05:27;;;;;;;;;;;14.10;99.90;;;;;;4944148;28;19935;-59
2022/10/23 00:07:56;;;;;;;;;;;14.10;99.90;;;;;;4943347;29;19930;-59
2022/10/23 00:10:25;;;;;;;;;;;14.10;99.90;;;;;;4944761;28;19926;-57
2022/10/23 00:12:53;;;;;;;;;;;14.10;99.90;;;;;;4939125;28;19926;-57
2022/10/23 00:15:21;;;;;;;;;;;14.10;99.90;;;;;;4945364;28;19946;-57
2022/10/23 00:17:49;;;;;;;;;;;14.10;99.90;;;;;;4947788;29;19938;-57
2022/10/23 00:20:16;;;;;;;;;;;14.10;99.90;;;;;;4947157;29;19926;-56
2022/10/23 00:22:44;;;;;;;;;;;14.10;99.90;;;;;;4945163;28;19926;-57
2022/10/23 00:25:11;;;;;;;;;;;14.10;99.90;;;;;;4946409;28;19931;-58
2022/10/23 00:27:38;;;;;;;;;;;14.10;99.90;;;;;;4949620;28;19927;-58
2022/10/23 00:30:06;;;;;;;;;;;14.10;99.90;;;;;;4943997;29;19930;-58
2022/10/23 00:32:34;;;;;;;;;;;14.10;99.90;;;;;;4948146;29;19931;-58
2022/10/23 00:35:02;;;;;;;;;;;14.10;99.90;;;;;;4948927;29;19926;-58
2022/10/23 00:37:29;;;;;;;;;;;14.10;99.90;;;;;;4946734;29;19926;-58
2022/10/23 00:39:57;;;;;;;;;;;14.10;99.90;;;;;;4949959;29;19927;-58
2022/10/23 00:42:24;;;;;;;;;;;14.10;99.90;;;;;;4949245;29;19937;-58
2022/10/23 00:44:51;;;;;;;;;;;14.00;99.90;;;;;;4942626;28;19926;-57
2022/10/23 00:47:19;;;;;;;;;;;14.10;99.90;;;;;;4948542;29;20449;-58
2022/10/23 00:49:46;;;;;;;;;;;14.10;99.90;;;;;;4933677;29;20378;-58
2022/10/23 00:52:14;;;;;;;;;;;14.10;99.90;;;;;;4948330;28;19934;-58
2022/10/23 00:54:42;;;;;;;;;;;14.00;99.90;;;;;;4949856;28;20445;-58
2022/10/23 00:57:13;;;;;;;;;;;14.00;99.90;;;;;;4945441;28;20005;-57
2022/10/23 00:59:41;;;;;;;;;;;14.00;99.90;;;;;;4948225;28;19927;-58
2022/10/23 01:02:08;;;;;;;;;;;14.00;99.90;;;;;;4949353;28;19934;-59
2022/10/23 01:04:37;;;;;;;;;;;14.00;99.90;;;;;;4946825;28;20110;-58
2022/10/23 01:07:17;;;;;;;;;;;14.00;99.90;;;;;;4948618;29;19934;-57
2022/10/23 01:09:57;;;;;;;;;;;14.00;99.90;;;;;;4951025;29;19949;-57
2022/10/23 01:12:38;;;;;;;;;;;14.00;99.90;;;;;;4948697;29;20382;-58
2022/10/23 01:15:10;;;;;;;;;;;14.00;99.90;;;;;;4938349;29;20386;-58
2022/10/23 01:17:43;;;;;;;;;;;14.00;99.90;;;;;;4963958;28;20294;-58
2022/10/23 01:20:15;;;;;;;;;;;14.00;99.90;;;;;;4949988;29;19996;-58
2022/10/23 01:22:46;;;;;;;;;;;14.00;99.90;;;;;;4950859;29;19930;-57
2022/10/23 01:25:30;;;;;;;;;;;14.00;99.90;;;;;;4950314;28;20389;-58
2022/10/23 01:28:00;;;;;;;;;;;14.00;99.90;;;;;;4946845;28;20374;-59
2022/10/23 01:30:28;;;;;;;;;;;14.00;99.90;;;;;;4947741;28;20285;-58
2022/10/23 01:33:00;;;;;;;;;;;14.00;99.90;;;;;;4943572;29;19926;-57
2022/10/23 01:35:39;;;;;;;;;;;14.00;99.90;;;;;;4935063;29;19927;-57
2022/10/23 01:38:15;;;;;;;;;;;14.00;99.90;;;;;;4954089;29;19930;-58
2022/10/23 01:40:45;;;;;;;;;;;14.00;99.90;;;;;;4949542;29;19926;-57
2022/10/23 01:43:16;;;;;;;;;;;14.00;99.90;;;;;;4952847;28;20306;-57
2022/10/23 01:45:49;;;;;;;;;;;14.00;99.90;;;;;;4947288;28;19926;-57
2022/10/23 01:48:25;;;;;;;;;;;13.90;99.90;;;;;;4948622;28;19926;-57
2022/10/23 01:50:54;;;;;;;;;;;13.90;99.90;;;;;;4953197;29;19930;-57
2022/10/23 01:53:23;;;;;;;;;;;13.80;99.90;;;;;;4953429;29;19927;-57
2022/10/23 01:55:51;;;;;;;;;;;13.80;99.90;;;;;;4952486;29;19927;-57
2022/10/23 01:58:24;;;;;;;;;;;13.80;99.90;;;;;;4952823;29;19949;-57
2022/10/23 02:00:52;;;;;;;;;;;13.80;99.90;;;;;;4952184;29;19933;-57
2022/10/23 02:03:21;;;;;;;;;;;13.70;99.90;;;;;;4953294;29;19927;-57
2022/10/23 02:05:48;;;;;;;;;;;13.70;99.90;;;;;;4953163;29;19926;-57
2022/10/23 02:08:16;;;;;;;;;;;13.70;99.90;;;;;;4952762;29;19927;-57
2022/10/23 02:10:46;;;;;;;;;;;13.70;99.90;;;;;;4954428;28;19926;-57
2022/10/23 02:13:24;;;;;;;;;;;13.60;99.90;;;;;;4952433;28;19926;-57
2022/10/23 02:16:06;;;;;;;;;;;13.60;99.90;;;;;;4953019;28;19930;-57
2022/10/23 02:18:42;;;;;;;;;;;13.60;99.90;;;;;;4953756;29;19933;-57
2022/10/23 02:21:12;;;;;;;;;;;13.60;99.90;;;;;;4952968;29;19926;-57
2022/10/23 02:23:58;;;;;;;;;;;13.60;99.90;;;;;;4954072;29;19926;-58
2022/10/23 02:26:25;;;;;;;;;;;13.60;99.90;;;;;;4933641;29;19927;-57
2022/10/23 02:28:57;;;;;;;;;;;13.50;99.90;;;;;;4934830;29;19930;-57
2022/10/23 02:31:24;;;;;;;;;;;13.50;99.90;;;;;;4933755;29;19926;-57
2022/10/23 02:33:52;;;;;;;;;;;13.50;99.90;;;;;;4934697;29;19933;-57
2022/10/23 02:36:20;;;;;;;;;;;13.50;99.90;;;;;;4949517;29;19927;-57
2022/10/23 02:38:48;;;;;;;;;;;13.40;99.90;;;;;;4949605;29;19938;-57
2022/10/23 02:41:28;;;;;;;;;;;13.40;99.90;;;;;;4933622;29;19946;-57
2022/10/23 02:44:13;;;;;;;;;;;13.40;99.90;;;;;;4934671;29;19938;-58
2022/10/23 02:46:53;;;;;;;;;;;13.40;99.90;;;;;;4934820;29;19927;-57
2022/10/23 02:49:33;;;;;;;;;;;13.40;99.90;;;;;;4933635;29;19933;-57
2022/10/23 02:52:06;;;;;;;;;;;13.50;99.90;;;;;;4933453;29;19927;-57
2022/10/23 02:54:37;;;;;;;;;;;13.50;99.90;;;;;;4938406;29;19926;-58
2022/10/23 02:57:24;;;;;;;;;;;13.40;99.90;;;;;;4952387;29;19927;-57
2022/10/23 02:59:58;;;;;;;;;;;13.50;99.90;;;;;;4933538;28;19926;-57
2022/10/23 03:02:36;;;;;;;;;;;13.50;99.90;;;;;;4952703;29;20406;-57
2022/10/23 03:05:06;;;;;;;;;;;13.50;99.90;;;;;;4952724;29;19926;-57
2022/10/23 03:07:34;;;;;;;;;;;13.50;99.90;;;;;;4953807;29;20297;-57
2022/10/23 03:10:05;;;;;;;;;;;13.50;99.90;;;;;;4952597;29;19927;-57
2022/10/23 03:12:33;;;;;;;;;;;13.50;99.90;;;;;;4952315;29;19926;-57
2022/10/23 03:15:01;;;;;;;;;;;13.50;99.90;;;;;;4952438;29;20378;-57
2022/10/23 03:17:28;;;;;;;;;;;13.50;99.90;;;;;;4953479;28;20416;-57
2022/10/23 03:19:58;;;;;;;;;;;13.50;99.90;;;;;;4952319;29;20402;-57
2022/10/23 03:22:26;;;;;;;;;;;13.50;99.90;;;;;;4952266;29;19926;-57
2022/10/23 03:24:53;;;;;;;;;;;13.50;99.90;;;;;;4952881;28;19927;-57
2022/10/23 03:27:20;;;;;;;;;;;13.50;99.90;;;;;;4955996;29;20400;-57
2022/10/23 03:29:48;;;;;;;;;;;13.50;99.90;;;;;;4957316;29;19930;-57
2022/10/23 03:32:16;;;;;;;;;;;13.40;99.90;;;;;;4940247;29;19934;-57
2022/10/23 03:34:44;;;;;;;;;;;13.40;99.90;;;;;;4956923;29;19934;-57
2022/10/23 03:37:11;;;;;;;;;;;13.40;99.90;;;;;;4956888;29;19953;-57
2022/10/23 03:39:39;;;;;;;;;;;13.40;99.90;;;;;;4957101;29;20009;-57
2022/10/23 03:42:06;;;;;;;;;;;13.40;99.90;;;;;;4955827;29;19933;-57
2022/10/23 03:44:34;;;;;;;;;;;13.40;99.90;;;;;;4939768;29;19926;-57
2022/10/23 03:47:02;;;;;;;;;;;13.40;99.90;;;;;;4955542;29;19933;-57
2022/10/23 03:49:30;;;;;;;;;;;13.50;99.90;;;;;;4956861;29;19926;-57
2022/10/23 03:52:03;;;;;;;;;;;13.50;99.90;;;;;;4955613;29;19927;-57
2022/10/23 03:54:31;;;;;;;;;;;13.50;99.90;;;;;;4956690;29;19926;-57
2022/10/23 03:56:58;;;;;;;;;;;13.50;99.90;;;;;;4956744;29;20405;-57
2022/10/23 03:59:26;;;;;;;;;;;13.50;99.90;;;;;;4956536;29;19926;-57
2022/10/23 04:01:54;;;;;;;;;;;13.50;99.90;;;;;;4955338;29;19926;-57
2022/10/23 04:04:23;;;;;;;;;;;13.50;99.90;;;;;;4955629;29;19926;-57
2022/10/23 04:06:51;;;;;;;;;;;13.50;99.90;;;;;;4956685;29;19927;-57
2022/10/23 04:09:19;;;;;;;;;;;13.50;99.90;;;;;;4954980;29;19926;-57
2022/10/23 04:11:47;;;;;;;;;;;13.50;99.90;;;;;;4955532;28;19926;-58
2022/10/23 04:14:14;;;;;;;;;;;13.50;99.90;;;;;;4956347;29;20295;-57
2022/10/23 04:16:41;;;;;;;;;;;13.50;99.90;;;;;;4955179;29;20429;-57
2022/10/23 04:19:09;;;;;;;;;;;13.50;99.90;;;;;;4955055;29;20051;-57
2022/10/23 04:21:37;;;;;;;;;;;13.50;99.90;;;;;;4954787;29;20318;-57
2022/10/23 04:24:04;;;;;;;;;;;13.50;99.90;;;;;;4955188;29;19933;-57
2022/10/23 04:26:32;;;;;;;;;;;13.50;99.90;;;;;;4956181;29;19934;-57
2022/10/23 04:28:59;;;;;;;;;;;13.50;99.90;;;;;;4954895;29;19926;-58
2022/10/23 04:31:28;;;;;;;;;;;13.50;99.90;;;;;;4954965;29;20306;-58
2022/10/23 04:33:56;;;;;;;;;;;13.50;99.90;;;;;;4954857;29;19927;-57
2022/10/23 04:36:32;;;;;;;;;;;13.50;99.90;;;;;;4955415;28;19934;-58
2022/10/23 04:39:09;;;;;;;;;;;13.50;99.90;;;;;;4951811;29;19930;-57
2022/10/23 04:41:37;;;;;;;;;;;13.50;99.90;;;;;;4951793;29;19934;-57
2022/10/23 04:44:05;;;;;;;;;;;13.50;99.90;;;;;;4948888;29;19934;-57
2022/10/23 04:46:36;;;;;;;;;;;13.50;99.90;;;;;;4935771;29;20441;-57
2022/10/23 04:49:04;;;;;;;;;;;13.50;99.90;;;;;;4940512;29;19927;-58
2022/10/23 04:52:06;;;;;;;;;;;13.50;99.90;;;;;;4938771;28;19937;-57
2022/10/23 04:54:44;;;;;;;;;;;13.50;99.90;;;;;;4952625;29;19927;-59
2022/10/23 04:57:32;;;;;;;;;;;13.50;99.90;;;;;;4950729;29;20695;-58
2022/10/23 05:00:07;;;;;;;;;;;13.50;99.90;;;;;;4950670;29;19926;-58
2022/10/23 05:02:41;;;;;;;;;;;13.50;99.90;;;;;;4940907;29;20664;-58
2022/10/23 05:05:09;;;;;;;;;;;13.60;99.90;;;;;;4948081;29;19931;-59
2022/10/23 05:07:52;;;;;;;;;;;13.60;99.90;;;;;;4930360;29;19927;-57
2022/10/23 05:10:28;;;;;;;;;;;13.60;99.90;;;;;;4948112;29;20232;-58
2022/10/23 05:13:11;;;;;;;;;;;13.60;99.90;;;;;;4946725;29;19927;-58
2022/10/23 05:15:40;;;;;;;;;;;13.60;99.90;;;;;;4948847;29;19933;-58
2022/10/23 05:18:15;;;;;;;;;;;13.60;99.90;;;;;;4922892;29;19930;-58
2022/10/23 05:20:43;;;;;;;;;;;13.60;99.90;;;;;;4929826;29;19926;-58
2022/10/23 05:23:13;;;;;;;;;;;13.60;99.90;;;;;;4924155;29;19934;-57
2022/10/23 05:25:49;;;;;;;;;;;13.60;99.90;;;;;;4927759;29;19934;-58
2022/10/23 05:28:17;;;;;;;;;;;13.60;99.90;;;;;;4950367;29;19932;-58
2022/10/23 05:30:45;;;;;;;;;;;13.60;99.90;;;;;;4934106;29;19946;-58
2022/10/23 05:33:15;;;;;;;;;;;13.60;99.90;;;;;;4942855;29;20382;-58
2022/10/23 05:35:43;;;;;;;;;;;13.60;99.90;;;;;;4931398;29;19946;-58
2022/10/23 05:38:14;;;;;;;;;;;13.60;99.90;;;;;;4945953;29;20099;-58
2022/10/23 05:40:42;;;;;;;;;;;13.60;99.90;;;;;;4947845;29;20392;-59
2022/10/23 05:43:15;;;;;;;;;;;13.60;99.90;;;;;;4946766;29;19934;-59
2022/10/23 05:45:52;;;;;;;;;;;13.60;99.90;;;;;;4946505;29;19934;-58
2022/10/23 05:48:29;;;;;;;;;;;13.60;99.90;;;;;;4938918;29;19927;-58
2022/10/23 05:51:20;;;;;;;;;;;13.60;99.90;;;;;;4936222;29;19933;-57
2022/10/23 05:53:55;;;;;;;;;;;13.60;99.90;;;;;;4933417;29;19930;-59
2022/10/23 05:56:40;;;;;;;;;;;14.20;99.90;;;;;;4949278;29;20319;-59
2022/10/23 05:59:22;;;;;;;;;;;13.60;99.90;;;;;;4948732;29;19926;-59
2022/10/23 06:01:59;;;;;;;;;;;13.60;99.90;;;;;;4932761;29;19930;-58
2022/10/23 06:04:37;;;;;;;;;;;13.60;99.90;;;;;;4931003;28;19950;-58
2022/10/23 06:07:34;;;;;;;;;;;13.60;99.90;;;;;;4940232;29;19926;-58
2022/10/23 06:10:05;;;;;;;;;;;13.60;99.90;;;;;;4948363;29;19927;-58
2022/10/23 06:12:36;;;;;;;;;;;13.60;99.90;;;;;;4949618;28;20271;-58
2022/10/23 06:15:04;;;;;;;;;;;13.60;99.90;;;;;;4946999;29;19938;-58
2022/10/23 06:17:53;;;;;;;;;;;13.60;99.90;;;;;;4942164;28;19926;-59
2022/10/23 06:20:20;;;;;;;;;;;13.60;99.90;;;;;;4931583;29;19927;-58
2022/10/23 06:23:03;;;;;;;;;;;13.60;99.90;;;;;;4940190;29;19933;-58
2022/10/23 06:25:54;;;;;;;;;;;13.60;99.90;;;;;;4949536;28;19926;-58
2022/10/23 06:28:30;;;;;;;;;;;13.60;99.90;;;;;;4948575;29;19933;-60
2022/10/23 06:30:58;;;;;;;;;;;13.60;99.90;;;;;;4948109;29;19930;-59
2022/10/23 06:33:26;;;;;;;;;;;13.60;99.90;;;;;;4944886;29;19927;-59
2022/10/23 06:35:54;;;;;;;;;;;13.60;99.90;;;;;;4929378;29;19927;-60
2022/10/23 06:38:22;;;;;;;;;;;13.50;99.90;;;;;;4943884;29;20413;-57
2022/10/23 06:40:55;;;;;;;;;;;13.50;99.90;;;;;;4942051;29;19926;-57
2022/10/23 06:43:30;;;;;;;;;;;13.50;99.90;;;;;;4942621;29;19933;-56
2022/10/23 06:46:15;;;;;;;;;;;13.50;99.90;;;;;;4948272;28;20304;-57
2022/10/23 06:48:58;;;;;;;;;;;13.50;99.90;;;;;;4939637;29;19927;-57
2022/10/23 06:51:30;;;;;;;;;;;13.50;99.90;;;;;;4938077;29;19938;-57
2022/10/23 06:53:57;;;;;;;;;;;13.50;99.90;;;;;;4949048;29;19931;-57
2022/10/23 06:56:48;;;;;;;;;;;13.50;99.90;;;;;;4919959;29;19934;-58
2022/10/23 06:59:23;;;;;;;;;;;13.50;99.90;;;;;;4945368;28;19937;-56
2022/10/23 07:01:52;;;;;;;;;;;13.40;99.90;;;;;;4932766;28;20366;-56
2022/10/23 07:04:21;;;;;;;;;;;13.50;99.90;;;;;;4938152;28;19942;-57
2022/10/23 07:06:49;;;;;;;;;;;13.40;99.90;;;;;;4950879;28;19942;-55
2022/10/23 07:09:24;;;;;;;;;;;13.40;99.90;;;;;;4951650;28;20378;-56
2022/10/23 07:11:51;;;;;;;;;;;13.40;99.90;;;;;;4953321;28;20084;-55
2022/10/23 07:14:24;;;;;;;;;;;13.40;99.90;;;;;;4933849;28;19931;-60
2022/10/23 07:16:52;;;;;;;;;;;13.40;99.90;;;;;;4953186;28;20408;-57
2022/10/23 07:19:20;;;;;;;;;;;13.40;99.90;;;;;;4948323;29;19930;-56
2022/10/23 07:21:54;;;;;;;;;;;13.40;99.90;;;;;;4934233;29;19927;-55
2022/10/23 07:24:40;;;;;;;;;;;13.40;99.90;;;;;;4938718;28;20125;-54
2022/10/23 07:27:18;;;;;;;;;;;13.40;99.90;;;;;;4952633;29;20293;-54
2022/10/23 07:29:53;;;;;;;;;;;13.40;99.90;;;;;;4950432;28;20291;-54
2022/10/23 07:32:23;;;;;;;;;;;13.40;99.90;;;;;;4951725;28;19926;-55
2022/10/23 07:35:06;;;;;;;;;;;13.40;99.90;;;;;;4939850;29;19931;-55
2022/10/23 07:37:34;;;;;;;;;;;13.40;99.90;;;;;;4943090;28;19930;-55
2022/10/23 07:40:04;;;;;;;;;;;13.40;99.90;;;;;;4936383;29;19931;-55
2022/10/23 07:42:37;;;;;;;;;;;13.40;99.90;;;;;;4952263;29;19934;-55
2022/10/23 07:45:06;;;;;;;;;;;13.40;99.90;;;;;;4951214;29;19926;-54
2022/10/23 07:47:35;;;;;;;;;;;13.40;99.90;;;;;;4949556;28;20245;-54
2022/10/23 07:50:03;;;;;;;;;;;13.40;99.90;;;;;;4950953;29;19934;-54
2022/10/23 07:52:30;;;;;;;;;;;13.40;99.90;;;;;;4951516;28;20297;-55
2022/10/23 07:55:09;;;;;;;;;;;13.40;99.90;;;;;;4952080;29;19927;-55
2022/10/23 07:57:40;;;;;;;;;;;13.40;99.90;;;;;;4951789;28;19927;-55
2022/10/23 08:00:17;;;;;;;;;;;13.40;99.90;;;;;;4950617;28;19946;-54
2022/10/23 08:02:54;;;;;;;;;;;13.40;99.90;;;;;;4950932;29;19934;-54
2022/10/23 08:05:22;;;;;;;;;;;13.40;99.90;;;;;;4950452;28;20326;-55
2022/10/23 08:07:56;;;;;;;;;;;13.40;99.90;;;;;;4935390;29;19933;-55
2022/10/23 08:10:23;;;;;;;;;;;13.40;99.90;;;;;;4951764;28;19933;-55
2022/10/23 08:12:51;;;;;;;;;;;13.40;99.90;;;;;;4950678;29;20269;-55
2022/10/23 08:15:26;;;;;;;;;;;13.30;99.90;;;;;;4937188;29;19933;-56
2022/10/23 08:18:01;;;;;;;;;;;13.30;99.90;;;;;;4950885;28;19927;-57
2022/10/23 08:20:38;;;;;;;;;;;13.30;99.90;;;;;;4922521;29;19936;-56
2022/10/23 08:23:06;;;;;;;;;;;13.40;99.90;;;;;;4941885;29;19927;-56
2022/10/23 08:25:34;;;;;;;;;;;13.30;99.90;;;;;;4950084;28;19957;-56
2022/10/23 08:28:02;;;;;;;;;;;13.30;99.90;;;;;;4950748;28;19933;-55
2022/10/23 08:30:39;;;;;;;;;;;13.30;99.90;;;;;;4951489;29;19927;-54
2022/10/23 08:33:07;;;;;;;;;;;13.30;99.90;;;;;;4950141;29;20418;-55
2022/10/23 08:35:38;;;;;;;;;;;13.30;99.90;;;;;;4937557;29;19927;-54
2022/10/23 08:38:07;;;;;;;;;;;13.30;99.90;;;;;;4948590;28;19953;-55
2022/10/23 08:40:44;;;;;;;;;;;13.00;99.90;;;;;;4946578;28;19926;-55
2022/10/23 08:43:45;;;;;;;;;;;13.20;99.90;;;;;;4943240;28;19926;-55
2022/10/23 08:46:41;;;;;;;;;;;13.20;99.90;;;;;;4942944;28;19927;-55
2022/10/23 08:49:14;;;;;;;;;;;13.20;99.90;;;;;;4946680;29;19937;-56
2022/10/23 08:51:46;;;;;;;;;;;13.20;99.90;;;;;;4940312;29;19949;-56
2022/10/23 08:54:16;;;;;;;;;;;13.20;99.90;;;;;;4942662;29;19927;-56
2022/10/23 08:56:48;;;;;;;;;;;13.20;99.90;;;;;;4942928;28;19926;-56
2022/10/23 08:59:31;;;;;;;;;;;13.20;99.90;;;;;;4945904;28;19935;-57
2022/10/23 09:02:17;;;;;;;;;;;13.20;99.90;;;;;;4952108;29;19926;-56
2022/10/23 09:04:47;;;;;;;;;;;13.20;99.90;;;;;;4935510;28;20310;-56
2022/10/23 09:07:20;;;;;;;;;;;13.20;99.90;;;;;;4950004;29;20412;-56
2022/10/23 09:10:00;;;;;;;;;;;13.20;99.90;;;;;;4943796;29;19949;-55
2022/10/23 09:12:28;;;;;;;;;;;13.20;99.90;;;;;;4944655;29;20505;-54
2022/10/23 09:14:59;;;;;;;;;;;13.10;99.90;;;;;;4931309;29;20374;-57
2022/10/23 09:17:31;;;;;;;;;;;13.10;99.90;;;;;;4935106;29;19927;-56
2022/10/23 09:19:59;;;;;;;;;;;13.20;99.90;;;;;;4946365;29;19927;-57
2022/10/23 09:22:27;;;;;;;;;;;13.20;99.90;;;;;;4935931;29;19934;-56
2022/10/23 09:24:55;;;;;;;;;;;13.20;99.90;;;;;;4951775;29;19934;-56
2022/10/23 09:27:22;;;;;;;;;;;13.20;99.90;;;;;;4951860;29;19953;-56
2022/10/23 09:29:52;;;;;;;;;;;13.20;99.90;;;;;;4948236;29;19930;-56
2022/10/23 09:32:31;;;;;;;;;;;13.20;99.90;;;;;;4937289;29;19938;-56
2022/10/23 09:34:58;;;;;;;;;;;13.20;99.90;;;;;;4945021;28;19934;-56
2022/10/23 09:37:28;;;;;;;;;;;13.20;99.90;;;;;;4946235;29;19934;-56
2022/10/23 09:40:15;;;;;;;;;;;13.20;99.90;;;;;;4932579;29;19931;-55
2022/10/23 09:43:09;;;;;;;;;;;13.20;99.90;;;;;;4936797;29;19926;-56
2022/10/23 09:45:40;;;;;;;;;;;13.20;99.90;;;;;;4949458;29;19926;-55
2022/10/23 09:48:17;;;;;;;;;;;13.20;99.90;;;;;;4950120;29;19931;-56
2022/10/23 09:50:52;;;;;;;;;;;13.20;99.90;;;;;;4946757;29;19927;-56
2022/10/23 09:53:30;;;;;;;;;;;13.20;99.90;;;;;;4941415;29;19934;-57
2022/10/23 09:56:00;;;;;;;;;;;13.20;99.90;;;;;;4950351;29;19926;-56
2022/10/23 09:58:32;;;;;;;;;;;13.20;99.90;;;;;;4947866;29;19927;-55
2022/10/23 10:00:59;;;;;;;;;;;13.20;99.90;;;;;;4948680;29;19926;-55
2022/10/23 10:03:47;;;;;;;;;;;13.30;99.90;;;;;;4949617;29;19931;-56
2022/10/23 10:06:19;;;;;;;;;;;13.30;99.90;;;;;;4942715;29;19950;-55
2022/10/23 10:08:48;;;;;;;;;;;13.30;99.90;;;;;;4944749;29;19946;-56
2022/10/23 10:11:22;;;;;;;;;;;13.30;99.90;;;;;;4951582;29;19937;-55
2022/10/23 10:13:55;;;;;;;;;;;13.40;99.90;;;;;;4950484;29;19933;-55
2022/10/23 10:16:31;;;;;;;;;;;13.40;99.90;;;;;;4950740;28;19926;-56
2022/10/23 10:19:01;;;;;;;;;;;13.50;99.90;;;;;;4950791;28;19949;-56
2022/10/23 10:21:35;;;;;;;;;;;13.60;99.90;;;;;;4942620;29;19930;-56
2022/10/23 10:24:25;;;;;;;;;;;13.70;99.90;;;;;;4947371;28;19933;-55
2022/10/23 10:27:14;;;;;;;;;;;13.70;99.90;;;;;;4950264;29;19926;-56
2022/10/23 10:29:41;;;;;;;;;;;13.80;99.90;;;;;;4920656;29;19927;-55
2022/10/23 10:32:23;;;;;;;;;;;14.00;99.90;;;;;;4931528;29;19927;-56
2022/10/23 10:35:01;;;;;;;;;;;13.90;99.90;;;;;;4950243;28;20413;-56
2022/10/23 10:37:29;;;;;;;;;;;14.00;99.90;;;;;;4949601;29;19926;-56
2022/10/23 10:40:20;;;;;;;;;;;13.90;99.90;;;;;;4950753;29;19937;-56
2022/10/23 10:43:06;;;;;;;;;;;14.00;99.90;;;;;;4949079;29;19934;-56
2022/10/23 10:45:54;;;;;;;;;;;14.00;99.90;;;;;;4950480;29;19926;-56
2022/10/23 10:48:24;;;;;;;;;;;13.90;99.90;;;;;;4930147;28;19995;-57
2022/10/23 10:51:11;;;;;;;;;;;13.90;99.90;;;;;;4946158;28;19934;-56
2022/10/23 10:53:45;;;;;;;;;;;14.00;99.90;;;;;;4944971;29;19927;-57
2022/10/23 10:56:17;;;;;;;;;;;14.00;99.90;;;;;;4950440;29;19926;-56
2022/10/23 10:58:57;;;;;;;;;;;14.00;99.90;;;;;;4950055;29;19985;-56
2022/10/23 11:01:25;;;;;;;;;;;14.00;99.90;;;;;;4950621;29;20370;-55
2022/10/23 11:03:53;;;;;;;;;;;14.10;99.90;;;;;;4950132;28;19927;-55
2022/10/23 11:06:23;;;;;;;;;;;14.00;99.90;;;;;;4945613;29;19927;-56
2022/10/23 11:08:51;;;;;;;;;;;14.10;99.90;;;;;;4944078;29;19930;-57
2022/10/23 11:11:33;;;;;;;;;;;14.00;99.90;;;;;;4950582;29;19934;-56
2022/10/23 11:14:01;;;;;;;;;;;14.10;99.90;;;;;;4949800;29;19927;-56
2022/10/23 11:16:30;;;;;;;;;;;14.10;99.90;;;;;;4950201;29;20302;-55
2022/10/23 11:19:03;;;;;;;;;;;14.10;99.90;;;;;;4950145;29;19934;-55
2022/10/23 11:21:43;;;;;;;;;;;14.10;99.90;;;;;;4944830;28;19969;-56
2022/10/23 11:24:23;;;;;;;;;;;14.10;99.90;;;;;;4948146;29;19933;-56
2022/10/23 11:27:05;;;;;;;;;;;14.20;99.90;;;;;;4950252;28;19938;-57
2022/10/23 11:29:48;;;;;;;;;;;14.20;99.90;;;;;;4949986;28;19931;-59
2022/10/23 11:32:34;;;;;;;;;;;14.20;99.90;;;;;;4947827;28;20624;-58
2022/10/23 11:35:12;;;;;;;;;;;14.40;99.90;;;;;;4935329;28;20517;-57
2022/10/23 11:37:40;;;;;;;;;;;14.40;99.90;;;;;;4944415;29;19931;-57
2022/10/23 11:40:08;;;;;;;;;;;14.40;99.90;;;;;;4931823;29;19930;-56
2022/10/23 11:42:38;;;;;;;;;;;14.40;99.90;;;;;;4939922;29;20387;-57
2022/10/23 11:45:24;;;;;;;;;;;14.50;99.90;;;;;;4935457;29;19934;-57
2022/10/23 11:47:56;;;;;;;;;;;14.50;99.90;;;;;;4947817;29;19926;-56
2022/10/23 11:50:29;;;;;;;;;;;14.60;99.90;;;;;;4953602;29;19934;-57
2022/10/23 11:53:19;;;;;;;;;;;14.70;99.90;;;;;;4953179;29;19938;-57
2022/10/23 11:56:02;;;;;;;;;;;14.80;99.90;;;;;;4947089;28;19926;-57
2022/10/23 11:58:44;;;;;;;;;;;15.00;99.90;;;;;;4952158;29;19933;-56
2022/10/23 12:01:31;;;;;;;;;;;15.20;99.90;;;;;;4951748;29;19942;-56
2022/10/23 12:04:14;;;;;;;;;;;15.30;99.90;;;;;;4949163;29;19927;-56
2022/10/23 12:06:52;;;;;;;;;;;15.40;99.90;;;;;;4953388;29;19926;-56
2022/10/23 12:09:23;;;;;;;;;;;15.40;99.90;;;;;;4953018;29;19934;-56
2022/10/23 12:12:08;;;;;;;;;;;15.40;99.90;;;;;;4952942;29;19927;-56
2022/10/23 12:14:37;;;;;;;;;;;15.40;99.90;;;;;;4933967;29;20375;-56
2022/10/23 12:17:22;;;;;;;;;;;15.30;99.90;;;;;;4932964;29;19927;-57
2022/10/23 12:19:52;;;;;;;;;;;15.30;99.90;;;;;;4933981;29;19931;-56
2022/10/23 12:22:25;;;;;;;;;;;15.30;99.90;;;;;;4935791;29;20294;-56
2022/10/23 12:25:11;;;;;;;;;;;15.40;99.90;;;;;;4952748;29;20302;-55
2022/10/23 12:28:08;;;;;;;;;;;15.80;99.90;;;;;;4952541;29;20267;-56
2022/10/23 12:30:49;;;;;;;;;;;16.10;99.90;;;;;;4881822;29;20003;-57
2022/10/23 12:33:16;;;;;;;;;;;16.40;99.90;;;;;;4943526;28;19931;-56
2022/10/23 12:35:46;;;;;;;;;;;17.00;99.90;;;;;;4952669;29;19926;-56
2022/10/23 12:38:16;;;;;;;;;;;17.50;99.90;;;;;;4952607;29;19934;-56
2022/10/23 12:40:59;;;;;;;;;;;17.90;99.90;;;;;;4952840;29;19927;-56
2022/10/23 12:43:28;;;;;;;;;;;18.40;99.90;;;;;;4945182;28;19927;-56
2022/10/23 12:46:00;;;;;;;;;;;18.70;99.90;;;;;;4943205;29;19933;-57
2022/10/23 12:48:28;;;;;;;;;;;18.60;99.90;;;;;;4946348;29;20329;-56
2022/10/23 12:50:56;;;;;;;;;;;18.40;99.90;;;;;;4950280;28;20397;-55
2022/10/23 12:53:23;;;;;;;;;;;18.30;99.90;;;;;;4952300;28;19930;-56
2022/10/23 12:55:58;;;;;;;;;;;18.30;99.90;;;;;;4952769;29;19926;-59
2022/10/23 12:58:29;;;;;;;;;;;18.40;99.90;;;;;;4952096;28;19926;-56
2022/10/23 13:01:03;;;;;;;;;;;18.70;99.90;;;;;;4951265;28;20517;-58
2022/10/23 13:03:32;;;;;;;;;;;19.00;99.90;;;;;;4947736;29;19933;-58
2022/10/23 13:06:03;;;;;;;;;;;19.20;99.90;;;;;;4952101;29;20286;-58
2022/10/23 13:08:38;;;;;;;;;;;19.30;99.90;;;;;;4950675;29;19931;-60
2022/10/23 13:11:23;;;;;;;;;;;19.60;99.90;;;;;;4951079;29;20466;-58
2022/10/23 13:13:52;;;;;;;;;;;20.10;99.90;;;;;;4950444;29;19938;-58
2022/10/23 13:16:21;;;;;;;;;;;20.60;99.90;;;;;;4951926;29;19930;-58
2022/10/23 13:18:49;;;;;;;;;;;20.70;99.90;;;;;;4948583;29;20378;-58
2022/10/23 13:21:27;;;;;;;;;;;20.80;99.90;;;;;;4951947;29;19927;-58
2022/10/23 13:23:55;;;;;;;;;;;20.70;99.90;;;;;;4951779;29;19943;-59
2022/10/23 13:26:30;;;;;;;;;;;20.40;99.90;;;;;;4951874;29;19927;-61
2022/10/23 13:28:59;;;;;;;;;;;20.10;99.90;;;;;;4951556;29;20353;-60
2022/10/23 13:31:29;;;;;;;;;;;19.60;99.90;;;;;;4951885;29;19933;-60
2022/10/23 13:33:59;;;;;;;;;;;19.40;99.90;;;;;;4949648;28;19926;-62
2022/10/23 13:36:28;;;;;;;;;;;19.50;99.90;;;;;;4951269;29;19927;-60
2022/10/23 13:38:59;;;;;;;;;;;19.60;99.90;;;;;;4934107;29;19927;-59
2022/10/23 13:41:28;;;;;;;;;;;19.40;99.90;;;;;;4950255;29;19942;-59
2022/10/23 13:43:56;;;;;;;;;;;19.00;99.90;;;;;;4950910;29;20386;-58
2022/10/23 13:46:24;;;;;;;;;;;18.60;99.90;;;;;;4950651;29;20481;-58
2022/10/23 13:48:52;;;;;;;;;;;18.30;99.90;;;;;;4949009;29;19927;-58
2022/10/23 13:51:24;;;;;;;;;;;17.90;99.90;;;;;;4950129;29;20297;-60
2022/10/23 13:53:53;;;;;;;;;;;17.70;99.90;;;;;;4949969;29;19927;-57
2022/10/23 13:56:22;;;;;;;;;;;17.80;99.90;;;;;;4951400;28;20264;-58
2022/10/23 13:58:50;;;;;;;;;;;18.10;99.90;;;;;;4951114;28;19934;-60
2022/10/23 14:01:24;;;;;;;;;;;18.30;99.90;;;;;;4948625;29;20280;-58
2022/10/23 14:03:53;;;;;;;;;;;18.40;99.90;;;;;;4946953;28;19930;-57
2022/10/23 14:06:20;;;;;;;;;;;18.30;99.90;;;;;;4947840;29;19927;-57
2022/10/23 14:08:48;;;;;;;;;;;18.20;99.90;;;;;;4949500;28;19926;-58
2022/10/23 14:11:16;;;;;;;;;;;18.00;99.90;;;;;;4951187;29;19926;-58
2022/10/23 14:13:44;;;;;;;;;;;17.80;99.90;;;;;;4949672;29;19934;-57
2022/10/23 14:16:12;;;;;;;;;;;17.60;99.90;;;;;;4950743;29;19931;-57
2022/10/23 14:18:40;;;;;;;;;;;17.50;99.90;;;;;;4950134;28;19926;-57
2022/10/23 14:21:09;;;;;;;;;;;17.40;99.90;;;;;;4950812;29;19927;-57
2022/10/23 14:23:36;;;;;;;;;;;17.40;99.90;;;;;;4949243;29;19926;-57
2022/10/23 14:26:05;;;;;;;;;;;17.30;99.90;;;;;;4950850;28;19938;-58
2022/10/23 14:28:32;;;;;;;;;;;17.30;99.90;;;;;;4950030;29;19927;-58
2022/10/23 14:31:04;;;;;;;;;;;17.30;99.90;;;;;;4947947;28;19927;-58
2022/10/23 14:33:32;;;;;;;;;;;17.30;99.90;;;;;;4937337;29;19927;-57
2022/10/23 14:35:59;;;;;;;;;;;17.10;99.90;;;;;;4940828;29;19939;-58
2022/10/23 14:38:27;;;;;;;;;;;17.10;99.90;;;;;;4950426;29;19942;-57
2022/10/23 14:40:54;;;;;;;;;;;16.90;99.90;;;;;;4950800;29;19937;-57
2022/10/23 14:43:22;;;;;;;;;;;16.90;99.90;;;;;;4950193;29;19926;-57
2022/10/23 14:45:50;;;;;;;;;;;16.80;99.90;;;;;;4949349;29;19926;-57
2022/10/23 14:48:17;;;;;;;;;;;16.70;99.90;;;;;;4943799;29;20386;-57